Etusivu
METAR-TAF:

METAR-TAF

Lentoasemat :

Lemmijoki, Norja

Leveyspiiri: 70-04N, Pituuspiiri: 024-59E, korkeus merenpinnasta: 0 m

Tämänhetkinen sää

Tämä raportti tehtiin 20 minuuttia sitten, kello 06.20 UTC
tyyntä
Lämpötila -15°C
Kosteus 92%
Ilmanpaine 996 hPa
Näkyvyys 10 km tai enemmän
Muutamia pilviä 4000 ft:n korkeudessa
Hajanaisia pilviä 9000 ft:n korkeudessa

METAR: ENNA 190620Z 00000KT 9999 FEW040 SCT090 M15/M16 Q0996 RMK WIND 1800FT 07008KT

Aika: 07:40 (06:40 UTC)

Sääennuste

Ennuste voimassa 19. päivästä klo 06 UTC - 20. päivään klo 06 UTC
Tuuli 8 kn eri suunnista
Näkyvyys 10 km tai enemmän
Muutamia pilviä 1000 ft:n korkeudessa
Hajonneita pilviä 4000 ft:n korkeudessa
Todennäköisyys 40%
19. päivästä klo 06 UTC - 20. päivään klo 06 UTC
Näkyvyys: 4000 m
1200 ft:n korkeudessa
heikkoa lumisadetta

TAF: ENNA 1906/2006 VRB08KT 9999 FEW010 BKN040 PROB40 1906/2006 4000 -SN VV012

Säähavainnot ja -ennusteet yli 4000 lentoasemalta (METAR- ja TAF-raportit).

Käytössä olevat sääasemat on merkitty karttaan keltaisilla ja punaisilla pisteillä.

Aseta hiiri pisteen päälle nähdäksesi sääaseman nimen.

Klikkaa sitten nähdäksesi säähavainnot ja -ennusteet.

Kartan vaihtaminen: klikkaa mustalla rastilla varustettuja vihreitä pisteitä, niin voit zoomata sisään; viivalla varustettua vihreää pistettä, niin voit zoomata ulos tai vihreitä nuolia, niin pääset viereisille kartoille.


METAR-TAF: